createdAt,value
2024-04-21T00:04:44.412Z,0.5436241610738255
2024-04-21T00:08:04.287Z,0.5637583892617449
2024-04-21T00:11:24.655Z,1.9597315436241611
2024-04-21T00:14:44.929Z,0.5973154362416108
2024-04-21T00:18:04.980Z,0.7181208053691275
2024-04-21T00:21:25.472Z,0.18120805369127516
2024-04-21T00:24:45.637Z,1.2751677852348993
2024-04-21T00:28:05.776Z,0.8523489932885906
2024-04-21T00:31:25.993Z,1.2885906040268456
2024-04-21T00:34:45.916Z,0.44966442953020136
2024-04-21T00:38:06.282Z,0.5704697986577181
2024-04-21T00:41:26.151Z,0.5570469798657718
2024-04-21T00:44:46.918Z,0.6375838926174496
2024-04-21T00:48:06.879Z,0.48322147651006714
2024-04-21T00:51:27.419Z,0.30201342281879195
2024-04-21T00:54:47.429Z,0.5838926174496645
2024-04-21T00:58:07.296Z,0.3959731543624161
2024-04-21T01:01:28.008Z,0.3422818791946309
2024-04-21T01:04:48.091Z,0.5234899328859061
2024-04-21T01:08:07.599Z,0.1342281879194631
2024-04-21T01:11:27.324Z,0.08053691275167785
2024-04-21T01:14:48.207Z,0.2348993288590604
2024-04-21T01:18:08.250Z,0.020134228187919462
2024-04-21T01:21:28.527Z,0.26174496644295303
2024-04-21T01:24:49.058Z,0.0
2024-04-21T01:28:09.012Z,0.09395973154362416
2024-04-21T01:38:02.218Z,0.26174496644295303
2024-04-21T01:41:22.258Z,0.2348993288590604
2024-04-21T01:44:42.826Z,0.7651006711409396
2024-04-21T01:48:02.333Z,1.1140939597315436
2024-04-21T01:51:22.035Z,0.912751677852349
2024-04-21T01:54:42.423Z,0.6577181208053692
2024-04-21T01:58:02.561Z,0.3691275167785235
2024-04-21T02:01:23.143Z,0.785234899328859
2024-04-21T02:04:43.261Z,0.7315436241610739
2024-04-21T02:08:03.079Z,1.2147651006711409
2024-04-21T02:11:23.163Z,0.9865771812080537
2024-04-21T02:15:39.783Z,1.0469798657718121
2024-04-21T02:18:59.075Z,0.8859060402684564
2024-04-21T02:22:19.690Z,0.40268456375838924
2024-04-21T02:25:40.790Z,0.87248322147651
2024-04-21T02:29:00.874Z,0.8053691275167785
2024-04-21T02:32:20.638Z,0.174496644295302
2024-04-21T02:35:40.370Z,0.348993288590604
2024-04-21T02:39:00.154Z,0.2214765100671141
2024-04-21T02:42:20.292Z,0.37583892617449666
2024-04-21T02:45:39.755Z,0.38926174496644295
2024-04-21T02:48:59.560Z,0.3825503355704698
2024-04-21T02:52:19.828Z,0.5906040268456376
2024-04-21T02:55:40.880Z,0.5973154362416108
2024-04-21T02:59:00.743Z,0.5436241610738255
2024-04-21T03:02:20.518Z,1.563758389261745
2024-04-21T03:09:46.021Z,1.5369127516778522
2024-04-21T03:13:06.363Z,0.6644295302013423
2024-04-21T03:17:59.672Z,0.6375838926174496
2024-04-21T03:21:20.293Z,0.8926174496644296
2024-04-21T03:24:40.521Z,0.5704697986577181
2024-04-21T03:28:00.487Z,0.9798657718120806
2024-04-21T03:31:20.758Z,0.5436241610738255
2024-04-21T03:34:40.655Z,0.7315436241610739
2024-04-21T03:38:00.617Z,1.174496644295302
2024-04-21T03:41:20.980Z,0.9932885906040269
2024-04-21T03:44:41.450Z,1.3020134228187918
2024-04-21T03:48:02.012Z,0.9932885906040269
2024-04-21T03:51:23.314Z,0.8993288590604027
2024-04-21T03:57:12.033Z,1.4563758389261745
2024-04-21T04:00:32.556Z,0.6174496644295302
2024-04-21T04:03:52.515Z,1.3825503355704698
2024-04-21T04:07:12.820Z,1.7651006711409396
2024-04-21T04:10:33.052Z,1.0939597315436242
2024-04-21T04:13:52.585Z,1.5033557046979866
2024-04-21T04:17:12.523Z,2.033557046979866
2024-04-21T04:20:35.809Z,2.6711409395973154
2024-04-21T04:23:57.689Z,2.4630872483221475
2024-04-21T04:27:18.375Z,2.5906040268456376
2024-04-21T04:30:54.314Z,2.9261744966442955
2024-04-21T04:34:15.736Z,2.5906040268456376
2024-04-21T04:37:35.696Z,2.664429530201342
2024-04-21T04:40:55.945Z,3.1946308724832213
2024-04-21T04:44:15.696Z,3.4295302013422817
2024-04-21T04:48:52.545Z,3.4093959731543624
2024-04-21T05:09:01.807Z,5.181208053691275
2024-04-21T05:12:22.347Z,6.120805369127517
2024-04-21T05:15:42.530Z,8.026845637583893
2024-04-21T05:20:47.074Z,8.04026845637584
2024-04-21T05:24:07.009Z,7.10738255033557
2024-04-21T05:27:27.102Z,7.409395973154362
2024-04-21T05:30:46.997Z,8.610738255033556
2024-04-21T05:34:06.951Z,7.02013422818792
2024-04-21T05:39:30.129Z,7.4630872483221475
2024-04-21T05:42:49.751Z,6.114093959731544
2024-04-21T05:51:20.805Z,7.328859060402684
2024-04-21T05:54:57.751Z,6.778523489932886
2024-04-21T05:58:18.709Z,7.953020134228188
2024-04-21T06:01:39.162Z,7.973154362416107
2024-04-21T06:05:15.177Z,8.416107382550335
2024-04-21T06:08:35.270Z,8.74496644295302
2024-04-21T06:11:54.993Z,9.583892617449665
2024-04-21T06:17:08.659Z,8.89261744966443
2024-04-21T06:20:28.806Z,9.026845637583893
2024-04-21T06:23:48.760Z,8.59731543624161
2024-04-21T06:27:09.669Z,7.778523489932886
2024-04-21T06:30:30.449Z,8.416107382550335
2024-04-21T06:33:50.638Z,9.234899328859061
2024-04-21T06:37:10.450Z,8.355704697986576
2024-04-21T06:49:03.400Z,7.785234899328859
2024-04-21T06:52:25.883Z,8.268456375838927
2024-04-21T06:55:45.616Z,9.422818791946309
2024-04-21T06:59:05.043Z,8.664429530201343
2024-04-21T07:02:26.149Z,7.74496644295302
2024-04-21T07:06:46.474Z,8.14765100671141
2024-04-21T07:10:06.555Z,7.174496644295302
2024-04-21T07:13:33.161Z,7.926174496644295
2024-04-21T07:16:56.693Z,7.120805369127517
2024-04-21T07:20:17.363Z,6.489932885906041
2024-04-21T07:23:37.422Z,7.194630872483222
2024-04-21T07:28:00.400Z,6.208053691275167
2024-04-21T07:31:21.151Z,6.530201342281879
2024-04-21T07:34:41.591Z,6.966442953020135
2024-04-21T07:38:04.271Z,6.355704697986577
2024-04-21T07:41:26.581Z,6.0
2024-04-21T07:44:46.567Z,6.89261744966443
2024-04-21T07:48:06.598Z,6.8120805369127515
2024-04-21T07:51:27.083Z,7.0
2024-04-21T07:54:47.385Z,5.2885906040268456
2024-04-21T07:58:08.090Z,4.785234899328859
2024-04-21T08:01:29.447Z,5.624161073825503
2024-04-21T08:04:49.816Z,4.1879194630872485
2024-04-21T08:08:09.443Z,4.644295302013423
2024-04-21T08:11:29.002Z,4.469798657718121
2024-04-21T08:14:49.217Z,4.516778523489933
2024-04-21T08:28:40.771Z,4.442953020134228
2024-04-21T08:32:00.893Z,3.684563758389262
2024-04-21T08:35:22.106Z,4.382550335570469
2024-04-21T08:38:42.368Z,4.093959731543624
2024-04-21T08:42:03.574Z,3.3422818791946307
2024-04-21T08:45:24.992Z,3.953020134228188
2024-04-21T08:51:37.469Z,3.9261744966442955
2024-04-21T08:54:57.115Z,2.879194630872483
2024-04-21T08:58:17.556Z,3.0134228187919465
2024-04-21T09:02:01.486Z,3.912751677852349
2024-04-21T09:05:21.498Z,3.6040268456375837
2024-04-21T09:08:56.908Z,2.7181208053691277
2024-04-21T09:12:17.162Z,1.8657718120805369
2024-04-21T09:15:37.428Z,3.1476510067114094
2024-04-21T09:18:57.981Z,1.9597315436241611
2024-04-21T09:22:18.819Z,2.8120805369127515
2024-04-21T09:25:38.660Z,2.1946308724832213
2024-04-21T09:28:58.596Z,2.436241610738255
2024-04-21T09:32:19.423Z,2.61744966442953
2024-04-21T09:35:40.563Z,3.302013422818792
2024-04-21T09:39:00.998Z,2.523489932885906
2024-04-21T09:42:21.946Z,2.9865771812080535
2024-04-21T09:46:15.889Z,3.3624161073825505
2024-04-21T09:49:35.885Z,2.697986577181208
2024-04-21T09:52:56.004Z,3.879194630872483
2024-04-21T09:56:16.205Z,4.355704697986577
2024-04-21T09:59:35.731Z,2.6912751677852347
2024-04-21T10:02:55.876Z,3.684563758389262
2024-04-21T10:06:16.888Z,3.6375838926174495
2024-04-21T10:09:36.598Z,2.865771812080537
2024-04-21T10:14:33.304Z,2.6442953020134228
2024-04-21T10:17:53.444Z,2.664429530201342
2024-04-21T10:21:15.257Z,2.8456375838926173
2024-04-21T10:24:35.636Z,1.825503355704698
2024-04-21T10:27:56.041Z,2.7986577181208054
2024-04-21T10:31:17.930Z,1.919463087248322
2024-04-21T10:34:38.188Z,2.389261744966443
2024-04-21T10:38:44.897Z,2.1543624161073827
2024-04-21T10:42:18.589Z,2.577181208053691
2024-04-21T10:45:38.550Z,3.6375838926174495
2024-04-21T10:50:07.646Z,2.3624161073825505
2024-04-21T10:53:27.757Z,2.879194630872483
2024-04-21T10:56:48.105Z,4.194630872483222
2024-04-21T11:00:08.476Z,3.6241610738255035
2024-04-21T11:03:29.311Z,2.6308724832214767
2024-04-21T11:06:49.621Z,3.1140939597315436
2024-04-21T11:10:10.114Z,2.7181208053691277
2024-04-21T11:16:29.225Z,2.966442953020134
2024-04-21T11:20:22.267Z,3.557046979865772
2024-04-21T11:23:42.755Z,4.140939597315437
2024-04-21T11:27:02.817Z,3.8456375838926173
2024-04-21T11:33:15.330Z,3.0
2024-04-21T11:36:35.388Z,2.2751677852348995
2024-04-21T11:39:58.050Z,3.6375838926174495
2024-04-21T11:43:20.899Z,3.48993288590604
2024-04-21T11:46:42.737Z,2.7986577181208054
2024-04-21T11:50:02.675Z,3.664429530201342
2024-04-21T11:53:23.479Z,2.3221476510067114
2024-04-21T11:56:43.005Z,2.2885906040268456
2024-04-21T12:00:05.827Z,2.4630872483221475
2024-04-21T12:03:26.325Z,2.8322147651006713
2024-04-21T12:06:46.135Z,2.053691275167785
2024-04-21T12:10:05.943Z,2.2348993288590604
2024-04-21T12:14:11.458Z,1.6308724832214765
2024-04-21T12:17:31.508Z,1.8657718120805369
2024-04-21T12:20:51.532Z,2.0
2024-04-21T12:24:11.570Z,2.3557046979865772
2024-04-21T12:30:16.735Z,2.0268456375838926
2024-04-21T12:35:07.272Z,2.053691275167785
2024-04-21T12:38:27.847Z,2.302013422818792
2024-04-21T12:41:47.797Z,1.516778523489933
2024-04-21T12:47:11.892Z,2.8322147651006713
2024-04-21T12:50:31.837Z,2.436241610738255
2024-04-21T12:53:51.925Z,2.0
2024-04-21T12:57:12.147Z,2.751677852348993
2024-04-21T13:06:56.726Z,1.8523489932885906
2024-04-21T13:18:49.174Z,2.9261744966442955
2024-04-21T13:22:08.808Z,2.3221476510067114
2024-04-21T13:25:28.753Z,2.2751677852348995
2024-04-21T13:28:48.118Z,2.9865771812080535
2024-04-21T13:32:07.993Z,2.315436241610738
2024-04-21T13:35:28.762Z,3.174496644295302
2024-04-21T13:38:48.730Z,1.7986577181208054
2024-04-21T13:42:08.992Z,1.570469798657718
2024-04-21T13:45:29.302Z,1.7718120805369129
2024-04-21T13:48:50.144Z,1.9798657718120805
2024-04-21T13:52:09.600Z,2.348993288590604
2024-04-21T13:55:30.227Z,2.0134228187919465
2024-04-21T13:58:49.719Z,2.261744966442953
2024-04-21T14:02:09.259Z,2.4832214765100673
2024-04-21T14:05:29.951Z,1.8053691275167785
2024-04-21T14:08:49.475Z,1.9261744966442953
2024-04-21T14:15:07.922Z,2.087248322147651
2024-04-21T14:20:24.441Z,1.8724832214765101
2024-04-21T14:23:44.549Z,2.563758389261745
2024-04-21T14:28:27.019Z,2.6375838926174495
2024-04-21T14:31:47.403Z,2.1879194630872485
2024-04-21T14:35:07.628Z,2.3288590604026846
2024-04-21T14:38:44.395Z,2.295302013422819
2024-04-21T14:46:20.860Z,2.7583892617449663
2024-04-21T14:49:40.889Z,2.140939597315436
2024-04-21T14:55:50.849Z,2.9261744966442955
2024-04-21T14:59:11.501Z,2.61744966442953
2024-04-21T15:02:32.823Z,2.6308724832214767
2024-04-21T15:06:17.045Z,3.348993288590604
2024-04-21T15:10:21.516Z,3.208053691275168
2024-04-21T15:13:41.487Z,2.9060402684563758
2024-04-21T15:17:01.027Z,3.3422818791946307
2024-04-21T15:20:21.179Z,3.4496644295302015
2024-04-21T15:23:41.124Z,2.9932885906040267
2024-04-21T15:28:17.164Z,4.563758389261745
2024-04-21T15:31:37.152Z,5.214765100671141
2024-04-21T15:34:57.472Z,3.6308724832214767
2024-04-21T15:38:17.830Z,3.9865771812080535
2024-04-21T15:41:37.892Z,3.7181208053691277
2024-04-21T15:44:57.458Z,4.295302013422819
2024-04-21T15:48:17.700Z,5.409395973154362
2024-04-21T15:54:01.371Z,6.053691275167785
2024-04-21T15:57:21.769Z,5.630872483221476
2024-04-21T16:00:41.816Z,5.342281879194631
2024-04-21T16:04:01.393Z,4.8120805369127515
2024-04-21T16:07:22.406Z,4.926174496644295
2024-04-21T16:10:42.403Z,5.604026845637584
2024-04-21T16:14:45.124Z,9.36241610738255
2024-04-21T16:18:05.417Z,9.523489932885907
2024-04-21T16:21:26.566Z,6.12751677852349
2024-04-21T16:27:16.761Z,4.375838926174497
2024-04-21T16:30:36.705Z,4.771812080536913
2024-04-21T16:33:56.159Z,4.644295302013423
2024-04-21T16:37:16.482Z,4.932885906040268
2024-04-21T16:40:36.435Z,4.053691275167785
2024-04-21T16:43:56.299Z,6.080536912751678
2024-04-21T16:47:17.744Z,4.154362416107382
2024-04-21T16:50:37.722Z,4.657718120805369
2024-04-21T16:53:57.670Z,3.335570469798658
2024-04-21T16:57:22.927Z,6.0
2024-04-21T17:00:44.033Z,3.87248322147651
2024-04-21T17:04:04.122Z,6.543624161073826
2024-04-21T17:07:24.472Z,13.543624161073826
2024-04-21T17:12:37.223Z,6.97986577181208
2024-04-21T17:15:57.320Z,6.221476510067114
2024-04-21T17:22:07.309Z,6.140939597315437
2024-04-21T17:25:28.877Z,5.328859060402684
2024-04-21T17:28:49.506Z,6.697986577181208
2024-04-21T17:40:16.022Z,7.530201342281879
2024-04-21T17:43:36.140Z,8.342281879194632
2024-04-21T17:46:56.845Z,7.8389261744966445
2024-04-21T17:58:35.769Z,5.973154362416107
2024-04-21T18:01:55.753Z,5.510067114093959
2024-04-21T18:05:17.200Z,5.375838926174497
2024-04-21T18:08:37.468Z,6.503355704697986
2024-04-21T18:11:58.339Z,7.456375838926174
2024-04-21T18:16:30.833Z,6.610738255033557
2024-04-21T18:19:52.047Z,7.275167785234899
2024-04-21T18:23:50.076Z,6.02013422818792
2024-04-21T18:27:10.234Z,6.375838926174497
2024-04-21T18:30:30.448Z,5.697986577181208
2024-04-21T18:33:50.073Z,5.476510067114094
2024-04-21T18:37:10.463Z,4.87248322147651
2024-04-21T18:40:30.994Z,5.1879194630872485
2024-04-21T18:43:51.150Z,5.959731543624161
2024-04-21T18:47:12.455Z,5.275167785234899
2024-04-21T18:50:34.164Z,5.89261744966443
2024-04-21T18:54:44.163Z,8.51006711409396
2024-04-21T18:58:05.805Z,8.046979865771812
2024-04-21T19:01:27.389Z,6.671140939597316
2024-04-21T19:05:08.742Z,6.154362416107382
2024-04-21T19:08:30.818Z,7.2885906040268456
2024-04-21T19:20:22.664Z,10.221476510067115
2024-04-21T19:24:15.003Z,10.899328859060402
2024-04-21T19:27:35.235Z,7.275167785234899
2024-04-21T19:30:55.096Z,6.2885906040268456
2024-04-21T19:34:15.067Z,6.496644295302014
2024-04-21T19:37:38.132Z,8.161073825503356
2024-04-21T19:40:57.433Z,9.516778523489933
2024-04-21T19:44:18.425Z,9.919463087248323
2024-04-21T19:47:38.692Z,14.006711409395972
2024-04-21T19:53:38.399Z,23.993288590604028
2024-04-21T19:56:58.535Z,27.838926174496645
2024-04-21T20:01:40.133Z,15.543624161073826
2024-04-21T20:04:59.695Z,13.778523489932885
2024-04-21T20:08:19.592Z,24.154362416107382
2024-04-21T20:14:39.350Z,10.120805369127517
2024-04-21T20:18:00.424Z,9.14765100671141
2024-04-21T20:21:21.303Z,10.604026845637584
2024-04-21T20:24:41.190Z,9.677852348993289
2024-04-21T20:28:01.393Z,8.684563758389261
2024-04-21T20:31:21.453Z,7.221476510067114
2024-04-21T20:34:41.783Z,7.469798657718121
2024-04-21T20:38:02.023Z,6.74496644295302
2024-04-21T20:41:21.782Z,6.489932885906041
2024-04-21T20:44:41.748Z,5.617449664429531
2024-04-21T20:48:01.937Z,6.026845637583893
2024-04-21T20:51:22.062Z,7.328859060402684
2024-04-21T20:54:42.036Z,6.201342281879195
2024-04-21T20:58:02.085Z,5.724832214765101
2024-04-21T21:05:40.046Z,7.114093959731544
2024-04-21T21:09:00.428Z,6.469798657718121
2024-04-21T21:12:21.522Z,7.342281879194631
2024-04-21T21:16:15.604Z,7.476510067114094
2024-04-21T21:19:35.846Z,6.543624161073826
2024-04-21T21:22:55.970Z,8.758389261744966
2024-04-21T21:27:35.967Z,8.630872483221477
2024-04-21T21:30:56.011Z,8.375838926174497
2024-04-21T21:34:32.467Z,6.590604026845638
2024-04-21T21:37:52.222Z,8.308724832214764
2024-04-21T21:44:26.649Z,8.463087248322148
2024-04-21T21:48:25.752Z,8.691275167785236
2024-04-21T21:51:46.045Z,8.013422818791947
2024-04-21T21:55:05.912Z,8.818791946308725
2024-04-21T21:58:26.098Z,7.228187919463087
2024-04-21T22:01:46.397Z,8.389261744966444
2024-04-21T22:08:12.233Z,7.114093959731544
2024-04-21T22:11:32.299Z,6.053691275167785
2024-04-21T22:14:52.246Z,6.221476510067114
2024-04-21T22:18:12.603Z,6.798657718120805
2024-04-21T22:21:33.400Z,6.409395973154362
2024-04-21T22:24:53.364Z,7.409395973154362
2024-04-21T22:28:13.502Z,6.704697986577181
2024-04-21T22:31:45.713Z,6.208053691275167
2024-04-21T22:35:13.100Z,7.422818791946309
2024-04-21T22:38:32.742Z,6.134228187919463
2024-04-21T22:41:52.478Z,6.9865771812080535
2024-04-21T22:45:17.229Z,6.422818791946309
2024-04-21T22:48:37.296Z,6.208053691275167
2024-04-21T22:51:56.905Z,6.76510067114094
2024-04-21T22:55:16.928Z,6.859060402684563
2024-04-21T22:58:37.330Z,6.805369127516778
2024-04-21T23:01:57.815Z,6.859060402684563
2024-04-21T23:05:18.779Z,6.805369127516778
2024-04-21T23:13:32.893Z,6.691275167785235
2024-04-21T23:16:52.818Z,7.557046979865772
2024-04-21T23:20:12.961Z,7.302013422818792
2024-04-21T23:23:32.807Z,7.966442953020135
2024-04-21T23:26:52.718Z,7.919463087248322
2024-04-21T23:30:12.290Z,7.76510067114094
2024-04-21T23:35:17.632Z,7.543624161073826
2024-04-21T23:38:37.680Z,8.10738255033557
2024-04-21T23:41:57.831Z,7.496644295302014
2024-04-21T23:45:18.305Z,7.510067114093959
2024-04-21T23:48:38.685Z,7.140939597315437
2024-04-21T23:55:09.331Z,8.751677852348994
2024-04-21T23:58:30.016Z,8.476510067114093
